Time;durP1;ratioP1;P1;durP2;ratioP2;P2;SDS_P1;SDS_P2;PMS_P1;PMS_P2;Temp;Humidity;BMP_temperature;BMP_pressure;BME280_temperature;BME280_humidity;BME280_pressure;Samples;Min_cycle;Max_cycle;Signal;HPM_P1;HPM_P2
2022/03/05 00:02:05;;;;;;;27.73;14.23;;;;;;;;;;5048932;28;20326;-60
2022/03/05 00:04:30;;;;;;;25.20;13.33;;;;;;;;;;5048391;28;20218;-60
2022/03/05 00:06:55;;;;;;;27.20;13.63;;;;;;;;;;5050161;28;20215;-60
2022/03/05 00:09:21;;;;;;;27.30;15.13;;;;;;;;;;5048335;28;20219;-60
2022/03/05 00:11:46;;;;;;;27.10;14.43;;;;;;;;;;5050278;28;20222;-60
2022/03/05 00:14:12;;;;;;;24.30;13.77;;;;;;;;;;5049805;28;20214;-60
2022/03/05 00:16:38;;;;;;;26.20;13.87;;;;;;;;;;5049183;28;20293;-60
2022/03/05 00:19:03;;;;;;;25.80;13.70;;;;;;;;;;5048103;28;20295;-60
2022/03/05 00:21:28;;;;;;;27.80;14.43;;;;;;;;;;5050009;28;20223;-60
2022/03/05 00:23:53;;;;;;;25.57;13.93;;;;;;;;;;5049014;28;20210;-60
2022/03/05 00:26:19;;;;;;;28.03;14.47;;;;;;;;;;5040529;28;20212;-60
2022/03/05 00:28:44;;;;;;;27.40;14.23;;;;;;;;;;5029876;28;20559;-60
2022/03/05 00:31:09;;;;;;;28.77;14.77;;;;;;;;;;5028783;28;20207;-60
2022/03/05 00:33:34;;;;;;;26.10;14.47;;;;;;;;;;5030141;28;20554;-60
2022/03/05 00:36:00;;;;;;;30.97;15.60;;;;;;;;;;5028437;28;20219;-60
2022/03/05 00:38:25;;;;;;;26.00;14.37;;;;;;;;;;5028998;28;20273;-60
2022/03/05 00:40:50;;;;;;;26.53;14.03;;;;;;;;;;5029851;28;20629;-60
2022/03/05 00:43:15;;;;;;;29.63;14.83;;;;;;;;;;5029553;28;20222;-60
2022/03/05 00:45:41;;;;;;;25.30;14.43;;;;;;;;;;5044226;28;20211;-60
2022/03/05 00:48:07;;;;;;;27.53;14.67;;;;;;;;;;5047404;28;20597;-60
2022/03/05 00:50:32;;;;;;;26.60;13.90;;;;;;;;;;5049169;28;20219;-60
2022/03/05 00:52:57;;;;;;;26.30;14.70;;;;;;;;;;5049010;28;20597;-60
2022/03/05 00:55:23;;;;;;;26.60;14.50;;;;;;;;;;5049228;28;20206;-60
2022/03/05 00:57:48;;;;;;;28.93;14.90;;;;;;;;;;5049760;28;20290;-60
2022/03/05 01:00:13;;;;;;;27.70;15.50;;;;;;;;;;5047111;28;20712;-60
2022/03/05 01:02:39;;;;;;;24.77;13.97;;;;;;;;;;5049478;28;20252;-60
2022/03/05 01:05:04;;;;;;;26.63;13.90;;;;;;;;;;5048556;28;20211;-60
2022/03/05 01:07:29;;;;;;;29.57;14.63;;;;;;;;;;5049002;28;20244;-60
2022/03/05 01:09:55;;;;;;;27.40;15.40;;;;;;;;;;5049484;28;20231;-59
2022/03/05 01:12:22;;;;;;;28.37;14.80;;;;;;;;;;5049221;28;20280;-59
2022/03/05 01:14:47;;;;;;;28.33;15.27;;;;;;;;;;5051753;28;20226;-60
2022/03/05 01:17:12;;;;;;;30.10;15.87;;;;;;;;;;5052613;28;20219;-59
2022/03/05 01:19:38;;;;;;;28.93;15.37;;;;;;;;;;5052223;28;20215;-59
2022/03/05 01:22:03;;;;;;;27.97;14.40;;;;;;;;;;5051131;28;20587;-60
2022/03/05 01:24:28;;;;;;;28.37;14.80;;;;;;;;;;5051603;28;20566;-59
2022/03/05 01:26:54;;;;;;;28.97;15.13;;;;;;;;;;5037939;28;20243;-59
2022/03/05 01:29:19;;;;;;;30.10;15.10;;;;;;;;;;5032414;28;20703;-59
2022/03/05 01:31:44;;;;;;;28.73;15.33;;;;;;;;;;5032644;28;20211;-59
2022/03/05 01:34:10;;;;;;;28.30;15.57;;;;;;;;;;5031745;28;20215;-60
2022/03/05 01:36:35;;;;;;;31.07;16.27;;;;;;;;;;5032565;28;20211;-59
2022/03/05 01:39:00;;;;;;;27.80;15.73;;;;;;;;;;5031073;28;20212;-60
2022/03/05 01:41:26;;;;;;;31.77;16.73;;;;;;;;;;5031943;28;20713;-59
2022/03/05 01:43:51;;;;;;;28.40;15.33;;;;;;;;;;5034209;28;20213;-60
2022/03/05 01:46:30;;;;;;;30.80;16.37;;;;;;;;;;5050773;28;20298;-59
2022/03/05 01:48:55;;;;;;;33.53;16.57;;;;;;;;;;5051509;28;20226;-60
2022/03/05 01:51:21;;;;;;;30.23;16.10;;;;;;;;;;5051597;28;20564;-59
2022/03/05 01:53:46;;;;;;;29.27;15.87;;;;;;;;;;5052300;28;20232;-59
2022/03/05 01:56:12;;;;;;;31.27;16.30;;;;;;;;;;5051107;28;20874;-59
2022/03/05 01:58:37;;;;;;;33.03;16.73;;;;;;;;;;5050534;28;20264;-59
2022/03/05 02:01:02;;;;;;;34.03;17.23;;;;;;;;;;5051790;28;20227;-59
2022/03/05 02:03:28;;;;;;;29.83;16.13;;;;;;;;;;5051209;28;20211;-59
2022/03/05 02:05:53;;;;;;;34.33;17.33;;;;;;;;;;5051904;28;20235;-59
2022/03/05 02:08:19;;;;;;;30.40;15.53;;;;;;;;;;5051454;28;20215;-59
2022/03/05 02:10:44;;;;;;;31.73;16.67;;;;;;;;;;5051414;28;20739;-59
2022/03/05 02:13:09;;;;;;;32.23;17.57;;;;;;;;;;5050112;28;20214;-59
2022/03/05 02:15:34;;;;;;;28.43;15.43;;;;;;;;;;5050071;28;20207;-59
2022/03/05 02:18:00;;;;;;;32.47;16.93;;;;;;;;;;5047194;28;20671;-59
2022/03/05 02:20:28;;;;;;;35.77;17.80;;;;;;;;;;5051223;28;20264;-60
2022/03/05 02:22:54;;;;;;;34.07;17.30;;;;;;;;;;5030909;28;20267;-59
2022/03/05 02:25:20;;;;;;;30.80;16.67;;;;;;;;;;5031974;28;20216;-59
2022/03/05 02:27:45;;;;;;;32.87;17.70;;;;;;;;;;5051568;28;20219;-59
2022/03/05 02:30:10;;;;;;;34.57;18.13;;;;;;;;;;5050159;28;20250;-59
2022/03/05 02:32:36;;;;;;;35.50;17.80;;;;;;;;;;5051353;28;20215;-59
2022/03/05 02:35:01;;;;;;;36.60;17.87;;;;;;;;;;5050881;28;20214;-59
2022/03/05 02:37:26;;;;;;;35.53;18.10;;;;;;;;;;5050287;28;20623;-59
2022/03/05 02:39:51;;;;;;;34.53;18.10;;;;;;;;;;5051145;28;20269;-59
2022/03/05 02:42:17;;;;;;;34.70;18.20;;;;;;;;;;5050585;28;20672;-59
2022/03/05 02:44:43;;;;;;;35.20;17.30;;;;;;;;;;5047899;28;20214;-59
2022/03/05 02:47:08;;;;;;;33.90;17.43;;;;;;;;;;5050394;28;20246;-59
2022/03/05 02:49:33;;;;;;;35.63;18.40;;;;;;;;;;5033154;28;20320;-59
2022/03/05 02:51:58;;;;;;;32.77;17.67;;;;;;;;;;5050218;28;20215;-59
2022/03/05 02:54:24;;;;;;;34.80;18.40;;;;;;;;;;5050727;28;20677;-60
2022/03/05 02:56:49;;;;;;;35.97;17.03;;;;;;;;;;5051207;28;20211;-60
2022/03/05 02:59:14;;;;;;;37.97;17.57;;;;;;;;;;5049720;28;20229;-60
2022/03/05 03:01:40;;;;;;;35.27;17.47;;;;;;;;;;5033336;28;20268;-60
2022/03/05 03:04:05;;;;;;;38.10;18.33;;;;;;;;;;5050266;28;20226;-60
2022/03/05 03:06:30;;;;;;;36.70;18.17;;;;;;;;;;5050064;28;20292;-59
2022/03/05 03:08:56;;;;;;;38.10;18.47;;;;;;;;;;5050718;28;20231;-59
2022/03/05 03:11:21;;;;;;;36.07;18.17;;;;;;;;;;5050488;28;20210;-59
2022/03/05 03:13:46;;;;;;;32.93;17.43;;;;;;;;;;5050187;28;20710;-60
2022/03/05 03:16:12;;;;;;;38.07;18.33;;;;;;;;;;5050341;28;20245;-61
2022/03/05 03:18:37;;;;;;;37.93;18.43;;;;;;;;;;5050473;28;20215;-60
2022/03/05 03:21:02;;;;;;;35.83;18.57;;;;;;;;;;5049703;28;20213;-60
2022/03/05 03:23:27;;;;;;;36.23;18.23;;;;;;;;;;5050261;28;20207;-60
2022/03/05 03:25:53;;;;;;;36.50;17.87;;;;;;;;;;5055042;28;20214;-60
2022/03/05 03:28:18;;;;;;;38.00;18.60;;;;;;;;;;5069950;28;20314;-60
2022/03/05 03:30:43;;;;;;;34.57;18.20;;;;;;;;;;5070319;28;20218;-60
2022/03/05 03:33:09;;;;;;;43.00;18.93;;;;;;;;;;5069224;28;20226;-60
2022/03/05 03:35:34;;;;;;;39.07;19.00;;;;;;;;;;5052114;28;20293;-60
2022/03/05 03:37:59;;;;;;;43.77;19.67;;;;;;;;;;5070205;28;20287;-60
2022/03/05 03:40:24;;;;;;;38.27;18.40;;;;;;;;;;5068731;28;20210;-60
2022/03/05 03:42:50;;;;;;;35.17;18.63;;;;;;;;;;5070239;28;20670;-60
2022/03/05 03:45:15;;;;;;;36.77;17.73;;;;;;;;;;5056550;28;20211;-60
2022/03/05 03:47:41;;;;;;;39.27;18.17;;;;;;;;;;5049374;28;20230;-60
2022/03/05 03:50:07;;;;;;;38.73;18.63;;;;;;;;;;5049418;28;20763;-60
2022/03/05 03:52:32;;;;;;;40.07;19.13;;;;;;;;;;5050141;28;20207;-60
2022/03/05 03:54:57;;;;;;;38.77;18.50;;;;;;;;;;5049157;28;20210;-60
2022/03/05 03:57:23;;;;;;;39.13;19.27;;;;;;;;;;5049624;28;20256;-60
2022/03/05 03:59:51;;;;;;;42.17;20.13;;;;;;;;;;5050016;28;20226;-60
2022/03/05 04:02:16;;;;;;;38.37;18.60;;;;;;;;;;5048938;28;20222;-60
2022/03/05 04:04:42;;;;;;;39.07;18.83;;;;;;;;;;5031843;28;20211;-60
2022/03/05 04:09:51;;;;;;;38.23;18.73;;;;;;;;;;5048623;28;20226;-60
2022/03/05 04:12:16;;;;;;;40.83;18.73;;;;;;;;;;5049458;28;20581;-60
2022/03/05 04:14:41;;;;;;;39.73;19.37;;;;;;;;;;5049700;28;20210;-60
2022/03/05 04:17:06;;;;;;;41.73;19.10;;;;;;;;;;5048707;28;20207;-60
2022/03/05 04:19:32;;;;;;;41.23;19.50;;;;;;;;;;5049913;28;20440;-60
2022/03/05 04:21:57;;;;;;;39.77;19.23;;;;;;;;;;5049960;28;20294;-60
2022/03/05 04:24:22;;;;;;;41.70;19.43;;;;;;;;;;5048551;28;20337;-60
2022/03/05 04:26:48;;;;;;;42.27;19.43;;;;;;;;;;5062644;28;20218;-60
2022/03/05 04:29:13;;;;;;;39.43;18.93;;;;;;;;;;5068643;28;20249;-60
2022/03/05 04:31:38;;;;;;;36.73;18.53;;;;;;;;;;5069406;28;20210;-60
2022/03/05 04:34:03;;;;;;;41.43;19.20;;;;;;;;;;5069366;28;20222;-60
2022/03/05 04:36:29;;;;;;;42.77;19.40;;;;;;;;;;5069183;28;20553;-60
2022/03/05 04:38:54;;;;;;;41.80;20.60;;;;;;;;;;5069612;28;21073;-60
2022/03/05 04:41:19;;;;;;;43.13;19.13;;;;;;;;;;5069147;28;20210;-60
2022/03/05 04:43:45;;;;;;;41.43;19.53;;;;;;;;;;5050511;28;20211;-60
2022/03/05 04:46:12;;;;;;;42.80;19.57;;;;;;;;;;5031330;28;20211;-60
2022/03/05 04:48:37;;;;;;;42.17;20.27;;;;;;;;;;5052176;28;20301;-60
2022/03/05 04:51:02;;;;;;;41.53;19.77;;;;;;;;;;5052346;28;20307;-60
2022/03/05 04:53:27;;;;;;;40.10;18.87;;;;;;;;;;5053610;28;20656;-60
2022/03/05 04:55:53;;;;;;;42.53;20.33;;;;;;;;;;5053082;28;20221;-60
2022/03/05 04:58:18;;;;;;;38.27;18.63;;;;;;;;;;5052158;28;20207;-60
2022/03/05 05:00:43;;;;;;;38.50;18.83;;;;;;;;;;5053269;28;20290;-60
2022/03/05 05:03:09;;;;;;;40.30;19.77;;;;;;;;;;5060165;28;20210;-60
2022/03/05 05:05:34;;;;;;;39.57;19.10;;;;;;;;;;5072413;28;20635;-60
2022/03/05 05:07:59;;;;;;;37.43;18.50;;;;;;;;;;5073189;28;20210;-60
2022/03/05 05:10:24;;;;;;;41.30;19.93;;;;;;;;;;5072443;28;20824;-60
2022/03/05 05:12:50;;;;;;;39.70;19.37;;;;;;;;;;5072327;28;20202;-60
2022/03/05 05:15:15;;;;;;;39.10;19.43;;;;;;;;;;5054582;28;20260;-60
2022/03/05 05:17:40;;;;;;;36.10;18.60;;;;;;;;;;5072792;28;20198;-60
2022/03/05 05:20:06;;;;;;;43.17;19.33;;;;;;;;;;5071760;28;20211;-60
2022/03/05 05:22:32;;;;;;;43.27;20.40;;;;;;;;;;5072833;28;20209;-60
2022/03/05 05:24:57;;;;;;;45.63;19.97;;;;;;;;;;5072782;28;20207;-60
2022/03/05 05:27:23;;;;;;;39.17;20.00;;;;;;;;;;5053412;28;20314;-60
2022/03/05 05:29:48;;;;;;;43.23;19.73;;;;;;;;;;5052749;28;20223;-60
2022/03/05 05:32:14;;;;;;;44.47;20.03;;;;;;;;;;5052277;28;20696;-60
2022/03/05 05:34:39;;;;;;;38.80;18.27;;;;;;;;;;5052271;28;20207;-60
2022/03/05 05:37:04;;;;;;;39.47;19.73;;;;;;;;;;5052382;28;20566;-59
2022/03/05 05:39:30;;;;;;;41.17;19.87;;;;;;;;;;5051990;28;20208;-60
2022/03/05 05:41:55;;;;;;;42.83;20.60;;;;;;;;;;5052070;28;20292;-60
2022/03/05 05:44:20;;;;;;;43.17;20.13;;;;;;;;;;5057546;28;20248;-60
2022/03/05 05:46:46;;;;;;;41.80;19.37;;;;;;;;;;5053688;28;20246;-60
2022/03/05 05:49:11;;;;;;;43.40;20.10;;;;;;;;;;5071154;28;20234;-60
2022/03/05 05:51:36;;;;;;;42.90;18.57;;;;;;;;;;5072373;28;20287;-60
2022/03/05 05:54:01;;;;;;;43.57;19.37;;;;;;;;;;5070991;28;20301;-60
2022/03/05 05:56:27;;;;;;;40.00;18.33;;;;;;;;;;5072173;28;20230;-60
2022/03/05 05:58:52;;;;;;;47.70;19.70;;;;;;;;;;5071691;28;20211;-60
2022/03/05 06:01:17;;;;;;;41.43;19.10;;;;;;;;;;5070947;28;20229;-60
2022/03/05 06:03:44;;;;;;;42.07;19.87;;;;;;;;;;5072154;28;20667;-60
2022/03/05 06:06:10;;;;;;;39.30;19.23;;;;;;;;;;5071567;28;20206;-59
2022/03/05 06:08:35;;;;;;;39.80;18.53;;;;;;;;;;5071235;28;20561;-60
2022/03/05 06:11:01;;;;;;;40.07;18.43;;;;;;;;;;5071531;28;20685;-60
2022/03/05 06:13:26;;;;;;;38.97;18.40;;;;;;;;;;5071909;28;20209;-60
2022/03/05 06:15:51;;;;;;;42.30;18.40;;;;;;;;;;5071136;28;20669;-60
2022/03/05 06:18:17;;;;;;;38.57;19.17;;;;;;;;;;5071210;28;20217;-60
2022/03/05 06:20:42;;;;;;;38.63;18.23;;;;;;;;;;5053826;28;20203;-59
2022/03/05 06:23:07;;;;;;;40.37;18.47;;;;;;;;;;5070446;28;20218;-60
2022/03/05 06:25:33;;;;;;;38.57;18.13;;;;;;;;;;5069074;28;20283;-60
2022/03/05 06:27:58;;;;;;;43.53;19.77;;;;;;;;;;5051264;28;20623;-60
2022/03/05 06:30:23;;;;;;;45.07;19.70;;;;;;;;;;5050412;28;20223;-60
2022/03/05 06:32:49;;;;;;;41.27;18.93;;;;;;;;;;5051511;28;20218;-60
2022/03/05 06:35:14;;;;;;;40.07;18.80;;;;;;;;;;5033338;28;20203;-60
2022/03/05 06:37:39;;;;;;;39.83;18.43;;;;;;;;;;5050924;28;20566;-60
2022/03/05 06:40:05;;;;;;;35.97;18.03;;;;;;;;;;5050885;28;20218;-60
2022/03/05 06:42:30;;;;;;;40.03;18.77;;;;;;;;;;5050921;28;20238;-60
2022/03/05 06:44:56;;;;;;;41.50;19.40;;;;;;;;;;5060821;28;20217;-60
2022/03/05 06:47:21;;;;;;;39.70;19.47;;;;;;;;;;5070593;28;20218;-60
2022/03/05 06:49:46;;;;;;;38.17;18.53;;;;;;;;;;5070465;28;20218;-60
2022/03/05 06:52:11;;;;;;;44.70;19.33;;;;;;;;;;5070646;28;20624;-60
2022/03/05 06:54:37;;;;;;;39.77;18.70;;;;;;;;;;5071088;28;20540;-60
2022/03/05 06:57:02;;;;;;;42.30;19.23;;;;;;;;;;5069859;28;20206;-60
2022/03/05 06:59:28;;;;;;;40.00;18.17;;;;;;;;;;5070434;28;20668;-59
2022/03/05 07:01:53;;;;;;;38.50;18.67;;;;;;;;;;5071074;28;20203;-61
2022/03/05 07:04:18;;;;;;;43.67;22.57;;;;;;;;;;5068800;28;20430;-60
2022/03/05 07:06:43;;;;;;;35.70;18.47;;;;;;;;;;5070810;28;20680;-60
2022/03/05 07:09:09;;;;;;;40.27;19.37;;;;;;;;;;5070029;28;20230;-61
2022/03/05 07:11:34;;;;;;;36.00;18.73;;;;;;;;;;5069539;28;20201;-61
2022/03/05 07:13:59;;;;;;;36.33;18.53;;;;;;;;;;5070543;28;20216;-62
2022/03/05 07:16:25;;;;;;;39.87;18.93;;;;;;;;;;5052470;28;20229;-62
2022/03/05 07:18:50;;;;;;;40.20;18.90;;;;;;;;;;5069905;28;20289;-62
2022/03/05 07:21:15;;;;;;;39.80;18.17;;;;;;;;;;5070177;28;20225;-61
2022/03/05 07:23:40;;;;;;;41.30;19.27;;;;;;;;;;5070621;28;20588;-62
2022/03/05 07:26:06;;;;;;;43.77;19.90;;;;;;;;;;5062185;28;20214;-61
2022/03/05 07:28:31;;;;;;;42.80;20.07;;;;;;;;;;5050201;28;20203;-62
2022/03/05 07:30:56;;;;;;;40.67;19.50;;;;;;;;;;5050443;28;20612;-61
2022/03/05 07:33:22;;;;;;;41.10;19.50;;;;;;;;;;5049337;28;20261;-62
2022/03/05 07:35:47;;;;;;;40.17;19.63;;;;;;;;;;5041230;28;20295;-63
2022/03/05 07:38:12;;;;;;;42.50;18.80;;;;;;;;;;5057973;28;20297;-60
2022/03/05 07:40:38;;;;;;;38.67;18.93;;;;;;;;;;5041361;28;20228;-61
2022/03/05 07:43:03;;;;;;;37.57;18.77;;;;;;;;;;5057745;28;21004;-61
2022/03/05 07:45:28;;;;;;;37.90;18.33;;;;;;;;;;5058341;28;20264;-62
2022/03/05 07:47:54;;;;;;;37.43;18.40;;;;;;;;;;5036265;28;20230;-64
2022/03/05 07:50:19;;;;;;;36.63;19.10;;;;;;;;;;5039369;28;20219;-64
2022/03/05 07:52:44;;;;;;;40.30;20.10;;;;;;;;;;5038702;28;20804;-64
2022/03/05 07:55:09;;;;;;;36.07;18.23;;;;;;;;;;5037549;28;20203;-64
2022/03/05 07:57:35;;;;;;;37.33;18.67;;;;;;;;;;5040062;28;20224;-65
2022/03/05 08:00:00;;;;;;;35.30;18.30;;;;;;;;;;5037564;28;20199;-66
2022/03/05 08:02:25;;;;;;;38.87;19.17;;;;;;;;;;5038352;28;20208;-65
2022/03/05 08:04:51;;;;;;;36.90;18.63;;;;;;;;;;5039314;28;20201;-66
2022/03/05 08:07:16;;;;;;;35.03;18.50;;;;;;;;;;5036851;28;20612;-65
2022/03/05 08:09:43;;;;;;;41.23;20.47;;;;;;;;;;5040693;28;20215;-64
2022/03/05 08:12:09;;;;;;;40.47;19.77;;;;;;;;;;5049765;28;20298;-64
2022/03/05 08:14:34;;;;;;;36.47;18.50;;;;;;;;;;5045835;28;20314;-67
2022/03/05 08:16:59;;;;;;;35.00;17.50;;;;;;;;;;5050082;28;20203;-64
2022/03/05 08:19:24;;;;;;;41.80;19.40;;;;;;;;;;5049645;28;20207;-64
2022/03/05 08:21:50;;;;;;;35.00;17.80;;;;;;;;;;5051008;28;20280;-63
2022/03/05 08:24:15;;;;;;;36.33;18.50;;;;;;;;;;5053617;28;20210;-64
2022/03/05 08:26:40;;;;;;;34.00;17.93;;;;;;;;;;5042197;28;20203;-64
2022/03/05 08:29:05;;;;;;;33.83;17.33;;;;;;;;;;5032605;28;20862;-63
2022/03/05 08:31:31;;;;;;;33.43;18.93;;;;;;;;;;5034054;28;20226;-63
2022/03/05 08:33:58;;;;;;;35.60;18.43;;;;;;;;;;5034090;28;20211;-63
2022/03/05 08:36:23;;;;;;;34.73;19.30;;;;;;;;;;5032649;28;20261;-65
2022/03/05 08:38:48;;;;;;;38.10;19.30;;;;;;;;;;5032521;28;20286;-64
2022/03/05 08:41:14;;;;;;;32.60;18.33;;;;;;;;;;5033483;28;20200;-63
2022/03/05 08:43:39;;;;;;;37.60;19.37;;;;;;;;;;5033102;28;20200;-62
2022/03/05 08:46:05;;;;;;;35.13;18.87;;;;;;;;;;5052862;28;20207;-61
2022/03/05 08:48:31;;;;;;;33.90;18.37;;;;;;;;;;5065979;28;20619;-61
2022/03/05 08:50:56;;;;;;;37.50;19.60;;;;;;;;;;5054626;28;20288;-62
2022/03/05 08:53:21;;;;;;;33.85;19.27;;;;;;;;;;5072915;28;20206;-61
2022/03/05 08:55:46;;;;;;;35.30;19.30;;;;;;;;;;5073452;28;20218;-62
2022/03/05 08:58:12;;;;;;;35.27;18.47;;;;;;;;;;5071954;28;20606;-62
2022/03/05 09:00:37;;;;;;;37.50;18.73;;;;;;;;;;5055284;28;20245;-62
2022/03/05 09:03:02;;;;;;;35.50;19.67;;;;;;;;;;5072917;28;20233;-62
2022/03/05 09:05:28;;;;;;;32.50;18.08;;;;;;;;;;5072330;28;20207;-62
2022/03/05 09:07:53;;;;;;;35.40;19.47;;;;;;;;;;5073330;28;20239;-61
2022/03/05 09:10:18;;;;;;;37.75;20.27;;;;;;;;;;5072358;28;20594;-62
2022/03/05 09:12:44;;;;;;;35.28;19.23;;;;;;;;;;5072160;28;20318;-62
2022/03/05 09:15:10;;;;;;;35.80;19.08;;;;;;;;;;5072512;28;20202;-61
2022/03/05 09:17:35;;;;;;;35.78;19.60;;;;;;;;;;5072064;28;20210;-62
2022/03/05 09:20:00;;;;;;;35.20;19.77;;;;;;;;;;5072368;28;20210;-61
2022/03/05 09:22:26;;;;;;;37.88;20.75;;;;;;;;;;5072664;28;20214;-62
2022/03/05 09:24:51;;;;;;;33.42;18.90;;;;;;;;;;5072081;28;20554;-61
2022/03/05 09:27:16;;;;;;;39.10;20.98;;;;;;;;;;5055482;28;20575;-62
2022/03/05 09:29:41;;;;;;;39.53;20.77;;;;;;;;;;5068711;28;20678;-61
2022/03/05 09:32:08;;;;;;;37.80;19.67;;;;;;;;;;5072526;28;20210;-62
2022/03/05 09:34:34;;;;;;;32.90;18.92;;;;;;;;;;5065976;28;20348;-61
2022/03/05 09:36:59;;;;;;;36.85;19.63;;;;;;;;;;5056731;28;20230;-61
2022/03/05 09:39:24;;;;;;;35.72;20.00;;;;;;;;;;5073308;28;20268;-61
2022/03/05 09:41:49;;;;;;;32.53;19.02;;;;;;;;;;5074392;28;20198;-61
2022/03/05 09:44:15;;;;;;;37.95;20.20;;;;;;;;;;5051316;28;20235;-61
2022/03/05 09:46:41;;;;;;;35.53;19.13;;;;;;;;;;5053488;28;20203;-61
2022/03/05 09:49:07;;;;;;;33.77;19.40;;;;;;;;;;5053232;28;20295;-60
2022/03/05 09:51:33;;;;;;;39.28;21.08;;;;;;;;;;5036416;28;20219;-61
2022/03/05 09:53:58;;;;;;;32.50;18.73;;;;;;;;;;5053887;28;20559;-61
2022/03/05 09:56:23;;;;;;;40.38;20.63;;;;;;;;;;5041425;28;20680;-61
2022/03/05 09:58:51;;;;;;;33.88;19.15;;;;;;;;;;5072178;28;20680;-60
2022/03/05 10:01:17;;;;;;;36.05;19.20;;;;;;;;;;5070952;28;20313;-61
2022/03/05 10:03:47;;;;;;;35.42;19.83;;;;;;;;;;5072252;28;20285;-61
2022/03/05 10:06:13;;;;;;;35.05;18.88;;;;;;;;;;5053474;28;20719;-60
2022/03/05 10:08:38;;;;;;;36.65;19.80;;;;;;;;;;5053089;28;20236;-60
2022/03/05 10:11:06;;;;;;;39.20;20.13;;;;;;;;;;5053408;28;20289;-60
2022/03/05 10:13:32;;;;;;;38.50;20.00;;;;;;;;;;5071440;28;20221;-60
2022/03/05 10:15:59;;;;;;;38.28;20.20;;;;;;;;;;5070321;28;20203;-60
2022/03/05 10:18:25;;;;;;;35.93;19.60;;;;;;;;;;5070801;28;20213;-60
2022/03/05 10:20:50;;;;;;;35.58;19.98;;;;;;;;;;5052946;28;20567;-60
2022/03/05 10:23:16;;;;;;;36.80;20.55;;;;;;;;;;5070839;28;20211;-60
2022/03/05 10:25:43;;;;;;;35.87;19.97;;;;;;;;;;5071545;28;20195;-60
2022/03/05 10:28:12;;;;;;;38.10;19.70;;;;;;;;;;5070083;28;20587;-60
2022/03/05 10:30:38;;;;;;;35.58;19.95;;;;;;;;;;5070889;28;20233;-62
2022/03/05 10:33:04;;;;;;;37.38;19.98;;;;;;;;;;5070810;28;20226;-61
2022/03/05 10:35:29;;;;;;;35.78;19.30;;;;;;;;;;5070026;28;20233;-62
2022/03/05 10:37:54;;;;;;;38.10;19.48;;;;;;;;;;5071245;28;20658;-62
2022/03/05 10:40:30;;;;;;;37.00;19.48;;;;;;;;;;5052777;28;20267;-61
2022/03/05 10:42:57;;;;;;;36.78;19.48;;;;;;;;;;5070133;28;20216;-62
2022/03/05 10:45:23;;;;;;;39.55;20.95;;;;;;;;;;5056402;28;20741;-62
2022/03/05 10:47:48;;;;;;;40.40;19.27;;;;;;;;;;5032435;28;20326;-60
2022/03/05 10:50:14;;;;;;;37.25;19.73;;;;;;;;;;5031448;28;20227;-64
2022/03/05 10:52:43;;;;;;;34.35;19.38;;;;;;;;;;5050973;28;20688;-66
2022/03/05 10:55:15;;;;;;;36.92;19.50;;;;;;;;;;5032323;28;20203;-63
2022/03/05 10:57:40;;;;;;;36.75;21.05;;;;;;;;;;5032523;28;20305;-63
2022/03/05 11:00:06;;;;;;;68.55;37.80;;;;;;;;;;5032681;28;20674;-64
2022/03/05 11:02:31;;;;;;;38.65;20.17;;;;;;;;;;5050800;28;20207;-64
2022/03/05 11:04:57;;;;;;;36.50;20.30;;;;;;;;;;5049896;28;20226;-64
2022/03/05 11:07:23;;;;;;;45.47;21.77;;;;;;;;;;5050375;28;20223;-63
2022/03/05 11:09:49;;;;;;;35.78;19.92;;;;;;;;;;5050330;28;20257;-64
2022/03/05 11:12:15;;;;;;;32.85;19.27;;;;;;;;;;5030966;28;20215;-65
2022/03/05 11:14:40;;;;;;;33.25;18.88;;;;;;;;;;5032220;28;20199;-65
2022/03/05 11:17:06;;;;;;;35.35;18.90;;;;;;;;;;5031084;28;20207;-64
2022/03/05 11:19:31;;;;;;;36.20;21.00;;;;;;;;;;5050407;28;20207;-65
2022/03/05 11:21:56;;;;;;;37.70;19.88;;;;;;;;;;5050472;28;20582;-65
2022/03/05 11:24:22;;;;;;;36.90;19.60;;;;;;;;;;5048890;28;20203;-65
2022/03/05 11:26:48;;;;;;;36.40;19.88;;;;;;;;;;5063024;28;20673;-65
2022/03/05 11:29:15;;;;;;;35.00;19.40;;;;;;;;;;5069559;28;20635;-64
2022/03/05 11:31:40;;;;;;;37.60;19.52;;;;;;;;;;5069280;28;20301;-65
2022/03/05 11:34:10;;;;;;;32.75;18.90;;;;;;;;;;5069467;28;20298;-64
2022/03/05 11:36:37;;;;;;;35.72;19.27;;;;;;;;;;5069819;28;20214;-64
2022/03/05 11:39:06;;;;;;;34.67;19.25;;;;;;;;;;5068935;28;20202;-64
2022/03/05 11:41:31;;;;;;;36.60;19.58;;;;;;;;;;5051976;28;20843;-64
2022/03/05 11:44:12;;;;;;;35.45;20.33;;;;;;;;;;5067966;28;20216;-64
2022/03/05 11:46:37;;;;;;;35.65;18.75;;;;;;;;;;5049186;28;20246;-65
2022/03/05 11:49:04;;;;;;;37.10;19.77;;;;;;;;;;5048691;28;20251;-65
2022/03/05 11:51:30;;;;;;;36.67;19.45;;;;;;;;;;5049961;28;20272;-65
2022/03/05 11:54:06;;;;;;;36.85;20.40;;;;;;;;;;5049060;28;20207;-65
2022/03/05 11:56:31;;;;;;;34.67;19.30;;;;;;;;;;5049104;28;20242;-65
2022/03/05 11:58:56;;;;;;;36.33;19.65;;;;;;;;;;5049307;28;20242;-65
2022/03/05 12:01:33;;;;;;;34.03;19.40;;;;;;;;;;5048523;28;20229;-65
2022/03/05 12:04:03;;;;;;;36.70;20.20;;;;;;;;;;5031781;28;20676;-67
2022/03/05 12:06:29;;;;;;;35.78;20.42;;;;;;;;;;5049123;28;20215;-65
2022/03/05 12:08:54;;;;;;;35.53;20.10;;;;;;;;;;5050031;28;20347;-64
2022/03/05 12:11:20;;;;;;;35.88;20.05;;;;;;;;;;5049109;28;21209;-65
2022/03/05 12:13:46;;;;;;;33.42;19.23;;;;;;;;;;5031638;28;20234;-64
2022/03/05 12:16:14;;;;;;;37.33;20.88;;;;;;;;;;5049275;28;20199;-64
2022/03/05 12:18:40;;;;;;;34.35;19.40;;;;;;;;;;5049546;28;20199;-66
2022/03/05 12:21:05;;;;;;;34.03;19.50;;;;;;;;;;5030722;28;20264;-63
2022/03/05 12:23:30;;;;;;;35.80;20.55;;;;;;;;;;5031587;28;20302;-63
2022/03/05 12:25:55;;;;;;;35.45;20.33;;;;;;;;;;5054999;28;20260;-63
2022/03/05 12:28:21;;;;;;;36.38;21.15;;;;;;;;;;5068225;28;20263;-63
2022/03/05 12:30:47;;;;;;;35.22;20.08;;;;;;;;;;5051487;28;20210;-63
2022/03/05 12:33:13;;;;;;;32.33;19.20;;;;;;;;;;5069426;28;20215;-62
2022/03/05 12:35:38;;;;;;;35.03;20.48;;;;;;;;;;5051008;28;20237;-63
2022/03/05 12:38:04;;;;;;;34.70;19.30;;;;;;;;;;5069301;28;20245;-63
2022/03/05 12:40:31;;;;;;;33.60;19.52;;;;;;;;;;5069796;28;20214;-65
2022/03/05 12:42:56;;;;;;;34.75;20.83;;;;;;;;;;5051324;28;20224;-64
2022/03/05 12:45:24;;;;;;;36.97;20.67;;;;;;;;;;5054949;28;20207;-64
2022/03/05 12:47:49;;;;;;;36.45;20.02;;;;;;;;;;5049386;28;20289;-63
2022/03/05 12:50:31;;;;;;;36.40;20.55;;;;;;;;;;5048224;28;20710;-65
2022/03/05 12:53:03;;;;;;;38.67;21.67;;;;;;;;;;5046267;28;20222;-64
2022/03/05 12:55:30;;;;;;;34.55;20.30;;;;;;;;;;5048029;28;20203;-64
2022/03/05 12:57:56;;;;;;;37.88;21.15;;;;;;;;;;5014666;28;20577;-64
2022/03/05 13:00:22;;;;;;;37.78;21.17;;;;;;;;;;5045751;28;20227;-64
2022/03/05 13:02:48;;;;;;;36.00;21.25;;;;;;;;;;5028170;28;20293;-64
2022/03/05 13:05:14;;;;;;;33.55;19.00;;;;;;;;;;5028440;28;20215;-64
2022/03/05 13:07:39;;;;;;;35.35;20.77;;;;;;;;;;5028250;28;20211;-64
2022/03/05 13:10:07;;;;;;;33.78;19.92;;;;;;;;;;5030898;28;20236;-64
2022/03/05 13:12:38;;;;;;;33.03;20.15;;;;;;;;;;5032513;28;20666;-64
2022/03/05 13:15:03;;;;;;;32.50;19.90;;;;;;;;;;5031891;28;20294;-64
2022/03/05 13:17:29;;;;;;;35.70;19.27;;;;;;;;;;5051979;28;20808;-64
2022/03/05 13:20:00;;;;;;;35.22;20.55;;;;;;;;;;5052359;28;20759;-64
2022/03/05 13:22:26;;;;;;;32.83;20.25;;;;;;;;;;5034238;28;20280;-64
2022/03/05 13:24:51;;;;;;;36.53;21.55;;;;;;;;;;5051793;28;20207;-64
2022/03/05 13:27:16;;;;;;;35.25;20.88;;;;;;;;;;5052076;28;20730;-64
2022/03/05 13:29:42;;;;;;;36.20;20.10;;;;;;;;;;5052304;28;20219;-64
2022/03/05 13:32:07;;;;;;;38.10;20.83;;;;;;;;;;5044737;28;20294;-64
2022/03/05 13:34:32;;;;;;;37.63;20.58;;;;;;;;;;5064683;28;20202;-64
2022/03/05 13:37:07;;;;;;;34.70;20.23;;;;;;;;;;5055539;28;20210;-67
2022/03/05 13:39:33;;;;;;;37.50;20.23;;;;;;;;;;5050778;28;20202;-64
2022/03/05 13:41:58;;;;;;;34.00;19.38;;;;;;;;;;5034520;28;20220;-65
2022/03/05 13:44:24;;;;;;;35.25;20.67;;;;;;;;;;5051600;28;20207;-64
2022/03/05 13:46:50;;;;;;;35.25;20.42;;;;;;;;;;5033977;28;20203;-65
2022/03/05 13:49:16;;;;;;;34.88;20.35;;;;;;;;;;5033377;28;20597;-64
2022/03/05 13:51:44;;;;;;;35.97;20.35;;;;;;;;;;5033806;28;20292;-62
2022/03/05 13:54:09;;;;;;;34.72;20.13;;;;;;;;;;5033714;28;20337;-62
2022/03/05 13:56:40;;;;;;;35.38;20.55;;;;;;;;;;5034590;28;20294;-63
2022/03/05 13:59:06;;;;;;;39.13;22.02;;;;;;;;;;5066117;28;20267;-62
2022/03/05 14:01:33;;;;;;;35.92;21.23;;;;;;;;;;5053572;28;20297;-63
2022/03/05 14:04:05;;;;;;;36.83;20.83;;;;;;;;;;5071684;28;20280;-65
2022/03/05 14:06:31;;;;;;;40.22;20.50;;;;;;;;;;5044980;28;20202;-64
2022/03/05 14:08:58;;;;;;;35.22;20.35;;;;;;;;;;5071882;28;20207;-64
2022/03/05 14:11:27;;;;;;;36.03;20.63;;;;;;;;;;5071717;28;20569;-64